createdAt,value
2023-01-20T00:00:36.324Z,90.87
2023-01-20T00:01:40.758Z,91.18
2023-01-20T00:02:43.444Z,91.07
2023-01-20T00:03:45.783Z,90.94
2023-01-20T00:04:49.406Z,90.53
2023-01-20T00:05:52.976Z,90.82
2023-01-20T00:06:55.543Z,90.86
2023-01-20T00:07:57.839Z,90.82
2023-01-20T00:09:01.939Z,90.81
2023-01-20T00:10:07.667Z,90.43
2023-01-20T00:11:12.964Z,90.37
2023-01-20T00:12:15.050Z,90.64
2023-01-20T00:13:17.414Z,90.37
2023-01-20T00:14:19.718Z,90.36
2023-01-20T00:15:22.148Z,90.61
2023-01-20T00:16:25.192Z,90.48
2023-01-20T00:17:29.041Z,90.84
2023-01-20T00:18:32.958Z,91.77
2023-01-20T00:19:35.165Z,92.83
2023-01-20T00:20:37.434Z,91.96
2023-01-20T00:21:40.004Z,91.90
2023-01-20T00:22:42.253Z,92.92
2023-01-20T00:23:45.967Z,93.38
2023-01-20T00:24:48.435Z,94.16
2023-01-20T00:25:50.779Z,94.38
2023-01-20T00:26:53.346Z,93.96
2023-01-20T00:27:55.478Z,94.45
2023-01-20T00:28:57.705Z,94.44
2023-01-20T00:30:00.254Z,94.33
2023-01-20T00:31:19.083Z,94.15
2023-01-20T00:32:24.219Z,94.83
2023-01-20T00:33:26.941Z,95.29
2023-01-20T00:34:29.376Z,94.28
2023-01-20T00:35:31.707Z,93.83
2023-01-20T00:36:33.821Z,94.24
2023-01-20T00:37:36.241Z,94.33
2023-01-20T00:52:03.894Z,88.29
2023-01-20T00:53:05.736Z,87.75
2023-01-20T00:54:07.461Z,87.89
2023-01-20T00:55:09.747Z,88.27
2023-01-20T00:56:11.784Z,87.87
2023-01-20T00:57:13.525Z,86.78
2023-01-20T00:58:16.042Z,87.26
2023-01-20T00:59:17.808Z,88.08
2023-01-20T01:00:19.766Z,88.21
2023-01-20T01:01:22.959Z,87.43
2023-01-20T01:02:24.803Z,87.33
2023-01-20T01:03:27.369Z,87.76
2023-01-20T01:04:29.270Z,87.38
2023-01-20T01:05:31.668Z,87.51
2023-01-20T01:06:33.394Z,88.04
2023-01-20T01:07:35.140Z,88.22
2023-01-20T01:08:36.917Z,88.12
2023-01-20T01:09:38.890Z,88.31
2023-01-20T01:10:40.563Z,87.42
2023-01-20T01:11:42.363Z,87.05
2023-01-20T01:12:44.211Z,86.69
2023-01-20T01:13:46.022Z,86.57
2023-01-20T01:14:47.812Z,86.73
2023-01-20T01:15:50.343Z,87.44
2023-01-20T01:16:52.062Z,87.76
2023-01-20T01:17:54.763Z,87.77
2023-01-20T01:18:56.527Z,87.22
2023-01-20T01:19:58.304Z,87.75
2023-01-20T01:21:00.122Z,88.54
2023-01-20T01:22:01.998Z,88.27
2023-01-20T01:23:06.694Z,87.62
2023-01-20T01:24:08.532Z,87.56
2023-01-20T01:25:10.344Z,87.02
2023-01-20T01:26:12.073Z,86.31
2023-01-20T01:27:14.259Z,86.23
2023-01-20T01:28:16.015Z,86.03
2023-01-20T01:29:17.739Z,86.31
2023-01-20T01:30:19.598Z,85.72
2023-01-20T01:31:21.484Z,84.79
2023-01-20T01:32:24.026Z,84.92
2023-01-20T01:33:25.678Z,84.93
2023-01-20T01:34:27.335Z,85.88
2023-01-20T01:35:29.080Z,86.60
2023-01-20T01:36:30.815Z,86.97
2023-01-20T01:37:32.484Z,87.20
2023-01-20T01:38:34.289Z,86.33
2023-01-20T01:39:36.007Z,85.10
2023-01-20T01:40:37.719Z,84.69
2023-01-20T01:41:39.422Z,84.29
2023-01-20T01:42:42.798Z,83.95
2023-01-20T01:44:09.215Z,83.72
2023-01-20T01:45:11.159Z,84.53
2023-01-20T01:46:13.276Z,83.21
2023-01-20T01:47:14.989Z,83.95
2023-01-20T01:48:20.579Z,84.18
2023-01-20T01:49:33.455Z,83.97
2023-01-20T01:50:53.317Z,84.00
2023-01-20T01:52:09.390Z,83.85
2023-01-20T01:53:12.727Z,84.09
2023-01-20T01:54:22.819Z,83.67
2023-01-20T01:55:29.660Z,84.27
2023-01-20T01:56:32.286Z,84.62
2023-01-20T01:57:35.380Z,83.66
2023-01-20T01:58:41.472Z,81.21
2023-01-20T01:59:44.216Z,82.27
2023-01-20T02:00:47.387Z,82.55
2023-01-20T02:01:52.483Z,81.72
2023-01-20T02:02:56.034Z,81.78
2023-01-20T02:04:13.947Z,81.96
2023-01-20T02:05:19.188Z,81.95
2023-01-20T02:06:23.461Z,83.15
2023-01-20T02:07:26.940Z,84.57
2023-01-20T02:08:28.677Z,84.10
2023-01-20T02:09:31.403Z,83.53
2023-01-20T02:10:33.166Z,82.71
2023-01-20T02:11:50.656Z,82.44
2023-01-20T02:12:52.673Z,82.93
2023-01-20T02:13:54.591Z,82.97
2023-01-20T02:14:59.734Z,83.78
2023-01-20T02:16:26.004Z,82.65
2023-01-20T02:17:35.603Z,83.05
2023-01-20T02:19:14.682Z,82.62
2023-01-20T02:20:48.340Z,83.00
2023-01-20T02:22:08.858Z,82.52
2023-01-20T02:23:43.842Z,82.82
2023-01-20T02:25:16.276Z,82.86
2023-01-20T02:26:50.359Z,82.17
2023-01-20T02:28:29.576Z,83.27
2023-01-20T02:30:07.822Z,82.16
2023-01-20T02:31:33.923Z,82.33
2023-01-20T02:32:44.460Z,82.34
2023-01-20T02:33:52.256Z,82.69
2023-01-20T02:34:59.603Z,82.68
2023-01-20T02:36:12.182Z,82.85
2023-01-20T02:37:18.425Z,82.74
2023-01-20T02:39:03.440Z,83.16
2023-01-20T02:40:23.260Z,82.95
2023-01-20T02:41:43.443Z,83.03
2023-01-20T02:42:50.923Z,82.94
2023-01-20T02:44:04.626Z,83.10
2023-01-20T02:45:45.138Z,82.57
2023-01-20T02:47:11.167Z,82.77
2023-01-20T02:48:27.830Z,83.15
2023-01-20T02:49:55.535Z,83.71
2023-01-20T02:51:29.640Z,83.96
2023-01-20T02:52:44.383Z,82.78
2023-01-20T02:53:58.865Z,82.49
2023-01-20T02:55:09.712Z,81.98
2023-01-20T02:56:12.850Z,81.98
2023-01-20T02:57:18.998Z,82.89
2023-01-20T02:58:45.956Z,82.78
2023-01-20T02:59:52.606Z,81.48
2023-01-20T03:01:01.308Z,81.98
2023-01-20T03:02:15.789Z,81.73
2023-01-20T03:03:23.466Z,80.42
2023-01-20T03:04:29.720Z,80.61
2023-01-20T03:05:36.111Z,80.72
2023-01-20T03:06:43.993Z,79.69
2023-01-20T03:07:48.733Z,80.26
2023-01-20T03:08:53.166Z,80.22
2023-01-20T03:09:58.661Z,80.56
2023-01-20T03:11:06.585Z,80.45
2023-01-20T03:12:16.772Z,80.52
2023-01-20T03:13:28.005Z,79.82
2023-01-20T03:14:30.701Z,80.11
2023-01-20T03:15:58.100Z,79.77
2023-01-20T03:17:01.245Z,80.60
2023-01-20T03:18:03.048Z,80.47
2023-01-20T03:19:04.839Z,80.37
2023-01-20T03:20:07.425Z,80.36
2023-01-20T03:21:10.770Z,80.52
2023-01-20T03:22:12.504Z,80.78
2023-01-20T03:23:14.236Z,80.97
2023-01-20T03:24:16.187Z,81.67
2023-01-20T03:25:20.003Z,81.49
2023-01-20T03:26:23.532Z,81.36
2023-01-20T03:27:26.564Z,81.10
2023-01-20T03:28:28.301Z,81.59
2023-01-20T03:29:30.049Z,81.68
2023-01-20T03:30:31.986Z,82.12
2023-01-20T03:31:41.414Z,82.27
2023-01-20T03:32:47.482Z,81.30
2023-01-20T03:33:51.847Z,81.21
2023-01-20T03:34:57.126Z,81.68
2023-01-20T03:35:59.117Z,81.52
2023-01-20T03:37:02.540Z,81.57
2023-01-20T03:38:04.426Z,81.76
2023-01-20T03:39:06.433Z,82.07
2023-01-20T03:40:09.171Z,82.19
2023-01-20T03:41:17.237Z,81.82
2023-01-20T03:42:46.789Z,82.24
2023-01-20T03:44:12.319Z,82.36
2023-01-20T03:45:36.887Z,82.43
2023-01-20T03:47:02.613Z,83.13
2023-01-20T03:48:31.705Z,83.43
2023-01-20T03:49:53.012Z,84.22
2023-01-20T03:51:08.712Z,84.76
2023-01-20T03:52:47.908Z,84.68
2023-01-20T03:53:55.825Z,85.23
2023-01-20T03:55:05.112Z,85.36
2023-01-20T03:56:14.718Z,85.89
2023-01-20T03:57:24.417Z,86.43
2023-01-20T03:58:43.178Z,87.00
2023-01-20T03:59:48.524Z,86.69
2023-01-20T04:00:52.210Z,87.12
2023-01-20T04:01:54.838Z,87.37
2023-01-20T04:02:58.727Z,87.81
2023-01-20T04:04:02.840Z,87.93
2023-01-20T04:05:07.378Z,88.15
2023-01-20T04:06:12.463Z,88.16
2023-01-20T04:07:20.235Z,88.58
2023-01-20T04:08:25.918Z,88.80
2023-01-20T04:09:33.683Z,88.81
2023-01-20T04:10:40.107Z,88.84
2023-01-20T04:11:41.884Z,88.85
2023-01-20T04:12:43.680Z,89.26
2023-01-20T04:13:45.671Z,88.99
2023-01-20T04:14:47.366Z,89.36
2023-01-20T04:15:49.163Z,89.20
2023-01-20T04:16:54.286Z,89.12
2023-01-20T04:17:55.959Z,89.53
2023-01-20T04:18:57.677Z,89.13
2023-01-20T04:20:03.674Z,89.63
2023-01-20T04:21:05.877Z,89.72
2023-01-20T04:22:25.700Z,89.97
2023-01-20T04:23:39.390Z,90.22
2023-01-20T04:24:43.658Z,90.10
2023-01-20T04:25:45.438Z,90.11
2023-01-20T04:26:47.414Z,90.32
2023-01-20T04:27:49.130Z,90.23
2023-01-20T04:28:50.878Z,90.33
2023-01-20T04:29:52.857Z,90.47
2023-01-20T04:30:54.690Z,90.66
2023-01-20T04:32:01.242Z,90.70
2023-01-20T04:33:03.074Z,90.82
2023-01-20T04:34:05.500Z,90.50
2023-01-20T04:35:07.585Z,90.71
2023-01-20T04:36:09.434Z,90.61
2023-01-20T04:37:11.240Z,90.66
2023-01-20T04:38:13.060Z,90.79
2023-01-20T04:39:14.810Z,90.66
2023-01-20T04:40:16.784Z,90.43
2023-01-20T04:41:18.573Z,90.53
2023-01-20T04:42:20.290Z,90.55
2023-01-20T04:43:21.971Z,90.51
2023-01-20T04:44:23.781Z,91.05
2023-01-20T04:45:25.546Z,91.32
2023-01-20T04:46:27.245Z,91.65
2023-01-20T04:47:33.117Z,91.83
2023-01-20T04:48:34.959Z,92.30
2023-01-20T04:49:36.758Z,92.54
2023-01-20T04:50:40.076Z,92.81
2023-01-20T04:51:41.848Z,93.02
2023-01-20T04:52:43.892Z,93.21
2023-01-20T04:53:45.716Z,93.72
2023-01-20T04:54:47.512Z,93.68
2023-01-20T04:55:49.155Z,93.90
2023-01-20T04:56:51.245Z,93.92
2023-01-20T04:57:52.973Z,94.02
2023-01-20T04:58:54.675Z,93.75
2023-01-20T04:59:56.479Z,93.74
2023-01-20T05:01:02.145Z,93.70
2023-01-20T05:02:04.043Z,93.92
2023-01-20T05:03:05.818Z,93.88
2023-01-20T05:04:07.673Z,93.87
2023-01-20T05:05:09.563Z,93.75
2023-01-20T05:06:11.838Z,93.41
2023-01-20T05:07:13.614Z,93.30
2023-01-20T05:08:15.485Z,93.23
2023-01-20T05:09:17.287Z,92.97
2023-01-20T05:10:19.333Z,93.07
2023-01-20T05:11:21.050Z,93.06
2023-01-20T05:12:22.746Z,93.63
2023-01-20T05:13:24.567Z,93.72
2023-01-20T05:14:26.282Z,93.84
2023-01-20T05:15:28.623Z,94.11
2023-01-20T05:16:30.439Z,94.30
2023-01-20T05:17:32.123Z,94.58
2023-01-20T05:18:34.344Z,94.66
2023-01-20T05:19:36.060Z,94.67
2023-01-20T05:20:37.907Z,94.87
2023-01-20T05:21:39.682Z,95.20
2023-01-20T05:22:41.481Z,95.07
2023-01-20T05:23:43.268Z,95.18
2023-01-20T05:24:45.043Z,95.20
2023-01-20T05:25:53.809Z,95.09
2023-01-20T05:26:55.610Z,95.17
2023-01-20T05:27:59.167Z,95.50
2023-01-20T05:29:01.115Z,95.44
2023-01-20T05:30:05.033Z,95.55
2023-01-20T05:31:07.014Z,96.00
2023-01-20T05:32:08.780Z,96.29
2023-01-20T05:33:11.008Z,96.48
2023-01-20T05:34:12.995Z,96.52
2023-01-20T05:35:14.919Z,96.94
2023-01-20T05:36:16.877Z,97.00
2023-01-20T05:37:18.896Z,97.10
2023-01-20T05:38:20.585Z,97.12
2023-01-20T05:39:22.299Z,97.12
2023-01-20T05:40:24.094Z,97.13
2023-01-20T05:41:25.808Z,97.26
2023-01-20T05:42:27.522Z,97.19
2023-01-20T05:43:29.236Z,97.13
2023-01-20T05:44:31.056Z,96.93
2023-01-20T05:45:32.786Z,96.90
2023-01-20T05:46:34.514Z,96.52
2023-01-20T05:47:36.300Z,96.79
2023-01-20T05:48:38.003Z,96.88
2023-01-20T05:49:39.936Z,96.87
2023-01-20T05:50:41.820Z,96.46
2023-01-20T05:51:43.539Z,96.51
2023-01-20T05:52:45.303Z,96.66
2023-01-20T05:53:47.097Z,96.56
2023-01-20T05:54:48.901Z,96.74
2023-01-20T05:55:58.231Z,96.71
2023-01-20T05:57:00.005Z,96.79
2023-01-20T05:58:02.811Z,96.51
2023-01-20T05:59:04.602Z,97.05
2023-01-20T06:00:08.751Z,97.10
2023-01-20T06:01:13.707Z,97.29
2023-01-20T06:02:15.449Z,97.17
2023-01-20T06:03:17.196Z,97.11
2023-01-20T06:04:18.902Z,97.08
2023-01-20T06:05:20.606Z,96.75
2023-01-20T06:06:22.475Z,96.64
2023-01-20T06:07:24.121Z,96.21
2023-01-20T06:08:26.042Z,96.09
2023-01-20T06:09:27.808Z,96.11
2023-01-20T06:10:29.604Z,96.24
2023-01-20T06:11:31.335Z,96.57
2023-01-20T06:12:33.039Z,97.02
2023-01-20T06:13:34.771Z,96.74
2023-01-20T06:14:36.555Z,96.60
2023-01-20T06:15:38.303Z,96.73
2023-01-20T06:16:40.087Z,96.72
2023-01-20T06:17:41.801Z,96.88
2023-01-20T06:18:43.707Z,96.89
2023-01-20T06:19:45.403Z,97.20
2023-01-20T06:20:47.149Z,97.50
2023-01-20T06:21:48.963Z,97.78
2023-01-20T06:22:55.279Z,97.84
2023-01-20T06:23:56.993Z,97.78
2023-01-20T06:24:58.742Z,97.73
2023-01-20T06:26:06.352Z,97.95
2023-01-20T06:27:08.054Z,98.00
2023-01-20T06:28:09.857Z,97.90
2023-01-20T06:29:11.762Z,97.96
2023-01-20T06:30:13.684Z,98.12
2023-01-20T06:31:17.163Z,98.03
2023-01-20T06:32:19.240Z,97.93
2023-01-20T06:33:20.989Z,97.92
2023-01-20T06:34:22.679Z,97.69
2023-01-20T06:35:25.243Z,97.80
2023-01-20T06:36:27.062Z,97.70
2023-01-20T06:37:28.931Z,97.90
2023-01-20T06:38:33.448Z,98.13
2023-01-20T06:39:35.355Z,98.28
2023-01-20T06:40:37.028Z,98.39
2023-01-20T06:41:38.717Z,98.61
2023-01-20T06:42:40.621Z,98.79
2023-01-20T06:43:42.393Z,98.95
2023-01-20T06:44:44.177Z,99.10
2023-01-20T06:45:45.967Z,99.04
2023-01-20T06:46:48.440Z,99.23
2023-01-20T06:47:50.234Z,99.42
2023-01-20T06:48:52.656Z,99.18
2023-01-20T06:49:54.377Z,99.15
2023-01-20T06:51:06.449Z,99.04
2023-01-20T06:52:08.194Z,99.16
2023-01-20T06:53:09.854Z,99.17
2023-01-20T06:54:11.626Z,99.17
2023-01-20T06:55:13.688Z,99.15
2023-01-20T06:56:16.127Z,99.22
2023-01-20T06:57:18.090Z,99.09
2023-01-20T06:58:19.768Z,99.32
2023-01-20T06:59:21.511Z,99.22
2023-01-20T07:00:25.837Z,99.33
2023-01-20T07:01:29.800Z,99.43
2023-01-20T07:02:31.777Z,99.41
2023-01-20T07:03:33.530Z,99.46
2023-01-20T07:04:35.338Z,99.41
2023-01-20T07:05:37.127Z,99.34
2023-01-20T07:06:40.786Z,99.10
2023-01-20T07:07:45.783Z,99.18
2023-01-20T07:08:47.524Z,99.13
2023-01-20T07:09:49.225Z,99.17
2023-01-20T07:10:50.895Z,98.96
2023-01-20T07:11:52.691Z,99.09
2023-01-20T07:12:54.510Z,99.02
2023-01-20T07:13:56.200Z,98.85
2023-01-20T07:14:57.915Z,98.63
2023-01-20T07:15:59.751Z,98.41
2023-01-20T07:17:01.500Z,98.14
2023-01-20T07:18:03.306Z,97.88
2023-01-20T07:19:05.583Z,97.59
2023-01-20T07:20:07.719Z,97.19
2023-01-20T07:21:12.313Z,96.90
2023-01-20T07:22:14.017Z,96.71
2023-01-20T07:23:15.791Z,96.05
2023-01-20T07:24:17.492Z,95.62
2023-01-20T07:25:19.206Z,95.72
2023-01-20T07:26:24.224Z,95.65
2023-01-20T07:27:25.955Z,95.77
2023-01-20T07:28:28.598Z,95.57
2023-01-20T07:29:30.321Z,95.52
2023-01-20T07:30:32.058Z,95.05
2023-01-20T07:31:33.867Z,94.70
2023-01-20T07:32:35.748Z,94.64
2023-01-20T07:33:38.503Z,94.31
2023-01-20T07:34:40.239Z,94.11
2023-01-20T07:35:42.058Z,94.30
2023-01-20T07:36:43.725Z,94.29
2023-01-20T07:37:45.401Z,94.47
2023-01-20T07:38:49.027Z,94.81
2023-01-20T07:39:50.788Z,94.65
2023-01-20T07:40:52.599Z,94.72
2023-01-20T07:41:54.467Z,94.72
2023-01-20T07:42:56.331Z,94.74
2023-01-20T07:43:58.039Z,94.69
2023-01-20T07:44:59.927Z,94.56
2023-01-20T07:46:04.227Z,94.32
2023-01-20T07:47:06.005Z,94.20
2023-01-20T07:48:07.899Z,94.07
2023-01-20T07:49:12.410Z,93.81
2023-01-20T07:50:14.286Z,93.73
2023-01-20T07:51:16.641Z,93.92
2023-01-20T07:52:18.337Z,93.62
2023-01-20T07:53:20.046Z,93.69
2023-01-20T07:54:21.846Z,93.53
2023-01-20T07:55:25.182Z,93.59
2023-01-20T07:56:28.410Z,93.59
2023-01-20T07:57:30.324Z,93.57
2023-01-20T07:58:32.492Z,93.38
2023-01-20T07:59:34.346Z,93.62
2023-01-20T08:00:36.245Z,93.59
2023-01-20T08:01:38.162Z,93.46
2023-01-20T08:02:40.418Z,93.54
2023-01-20T08:03:43.011Z,93.64
2023-01-20T08:04:44.848Z,93.60
2023-01-20T08:05:49.119Z,93.58
2023-01-20T08:06:50.920Z,93.64
2023-01-20T08:07:52.813Z,93.92
2023-01-20T08:08:56.633Z,94.06
2023-01-20T08:10:00.270Z,94.47
2023-01-20T08:11:02.867Z,94.64
2023-01-20T08:12:04.890Z,94.84
2023-01-20T08:13:06.697Z,94.84
2023-01-20T08:14:08.465Z,94.51
2023-01-20T08:15:10.969Z,94.04
2023-01-20T08:16:15.044Z,93.70
2023-01-20T08:17:16.808Z,93.72
2023-01-20T08:18:18.560Z,93.50
2023-01-20T08:19:20.245Z,93.37
2023-01-20T08:20:22.635Z,93.22
2023-01-20T08:21:27.353Z,93.58
2023-01-20T08:22:29.058Z,93.82
2023-01-20T08:23:30.775Z,94.24
2023-01-20T08:24:32.622Z,93.87
2023-01-20T08:25:34.411Z,93.42
2023-01-20T08:26:36.820Z,93.05
2023-01-20T08:27:38.607Z,92.05
2023-01-20T08:28:40.555Z,91.96
2023-01-20T08:29:42.235Z,91.94
2023-01-20T08:30:43.999Z,91.10
2023-01-20T08:31:45.948Z,90.09
2023-01-20T08:32:47.897Z,89.74
2023-01-20T08:33:53.462Z,90.03
2023-01-20T08:34:55.136Z,90.32
2023-01-20T08:35:56.841Z,90.16
2023-01-20T08:36:58.599Z,90.16
2023-01-20T08:38:00.264Z,90.33
2023-01-20T08:39:04.129Z,90.30
2023-01-20T08:40:10.097Z,90.04
2023-01-20T08:41:33.672Z,89.96
2023-01-20T08:42:37.067Z,90.15
2023-01-20T08:43:38.880Z,90.24
2023-01-20T08:44:40.578Z,90.43
2023-01-20T08:45:42.371Z,89.85
2023-01-20T08:46:45.312Z,89.72
2023-01-20T08:47:47.116Z,89.65
2023-01-20T08:48:50.041Z,90.87
2023-01-20T08:49:53.813Z,90.73
2023-01-20T08:50:55.679Z,89.64
2023-01-20T08:51:57.345Z,89.40
2023-01-20T08:52:59.070Z,88.86
2023-01-20T08:54:01.220Z,88.83
2023-01-20T08:55:03.582Z,88.32
2023-01-20T08:56:06.603Z,88.03
2023-01-20T08:57:08.312Z,88.42
2023-01-20T08:58:10.067Z,88.18
2023-01-20T08:59:11.951Z,88.23
2023-01-20T09:00:14.270Z,87.73
2023-01-20T09:01:21.936Z,87.89
2023-01-20T09:02:24.126Z,87.40
2023-01-20T09:03:27.149Z,86.90
2023-01-20T09:04:28.931Z,86.65
2023-01-20T09:05:30.837Z,86.76
2023-01-20T09:06:41.921Z,86.19
2023-01-20T09:07:43.655Z,86.67
2023-01-20T09:08:45.794Z,86.36
2023-01-20T09:09:47.629Z,85.83
2023-01-20T09:10:49.389Z,85.39
2023-01-20T09:11:51.397Z,85.60
2023-01-20T09:12:53.325Z,85.17
2023-01-20T09:13:55.079Z,84.61
2023-01-20T09:14:56.953Z,85.19
2023-01-20T09:15:58.786Z,84.98
2023-01-20T09:17:00.629Z,85.10
2023-01-20T09:18:02.485Z,85.44
2023-01-20T09:19:04.278Z,84.92
2023-01-20T09:20:06.604Z,84.55
2023-01-20T09:21:09.412Z,84.23
2023-01-20T09:22:11.201Z,82.95
2023-01-20T09:23:12.915Z,82.99
2023-01-20T09:24:15.168Z,82.96
2023-01-20T09:25:17.459Z,84.11
2023-01-20T09:26:34.406Z,83.33
2023-01-20T09:27:37.083Z,83.97
2023-01-20T09:28:38.796Z,84.08
2023-01-20T09:29:40.734Z,82.85
2023-01-20T09:30:42.528Z,83.30
2023-01-20T09:31:56.056Z,83.54
2023-01-20T09:32:58.112Z,81.97
2023-01-20T09:34:01.582Z,83.16
2023-01-20T09:35:03.525Z,82.54
2023-01-20T09:36:07.461Z,81.96
2023-01-20T09:37:09.433Z,82.51
2023-01-20T09:38:11.378Z,83.33
2023-01-20T09:39:14.626Z,83.96
2023-01-20T09:40:26.042Z,83.56
2023-01-20T09:41:30.979Z,83.35
2023-01-20T09:42:36.154Z,83.25
2023-01-20T09:43:53.659Z,82.79
2023-01-20T09:45:26.539Z,82.36
2023-01-20T09:46:34.008Z,82.17
2023-01-20T09:47:46.267Z,82.50
2023-01-20T09:49:08.713Z,81.68
2023-01-20T09:50:34.645Z,82.04
2023-01-20T09:52:01.356Z,82.63
2023-01-20T09:53:08.781Z,82.09
2023-01-20T09:54:18.747Z,82.40
2023-01-20T09:55:26.725Z,82.67
2023-01-20T09:56:31.404Z,82.07
2023-01-20T09:57:40.882Z,81.80
2023-01-20T09:59:02.412Z,82.38
2023-01-20T10:00:14.915Z,82.48
2023-01-20T10:01:31.559Z,80.62
2023-01-20T10:02:36.148Z,80.65
2023-01-20T10:03:40.877Z,80.50
2023-01-20T10:04:48.614Z,81.54
2023-01-20T10:05:55.504Z,80.97
2023-01-20T10:07:03.292Z,81.59
2023-01-20T10:08:13.884Z,81.23
2023-01-20T10:09:33.772Z,81.78
2023-01-20T10:10:43.054Z,82.50
2023-01-20T10:11:47.633Z,82.33
2023-01-20T10:12:57.800Z,82.65
2023-01-20T10:14:35.366Z,82.28
2023-01-20T10:15:42.777Z,82.69
2023-01-20T10:17:07.368Z,82.63
2023-01-20T10:18:22.018Z,82.90
2023-01-20T10:19:33.186Z,82.88
2023-01-20T10:20:58.575Z,82.70
2023-01-20T10:22:34.564Z,83.20
2023-01-20T10:23:50.653Z,82.57
2023-01-20T10:25:00.463Z,82.19
2023-01-20T10:26:10.367Z,82.20
2023-01-20T10:27:12.273Z,81.65
2023-01-20T10:28:26.974Z,79.31
2023-01-20T10:29:34.953Z,79.30
2023-01-20T10:30:37.638Z,76.06
2023-01-20T10:31:57.614Z,75.79
2023-01-20T10:33:08.440Z,75.54
2023-01-20T10:34:15.598Z,77.17
2023-01-20T10:35:25.130Z,75.29
2023-01-20T10:36:31.556Z,75.32
2023-01-20T10:37:35.298Z,74.15
2023-01-20T10:38:52.130Z,75.22
2023-01-20T10:39:59.085Z,76.50
2023-01-20T10:41:13.947Z,76.25
2023-01-20T10:42:19.353Z,76.06
2023-01-20T10:43:21.531Z,76.60
2023-01-20T10:44:23.682Z,76.01
2023-01-20T10:45:38.472Z,75.91
2023-01-20T10:46:46.059Z,76.69
2023-01-20T10:48:13.858Z,77.49
2023-01-20T10:49:48.444Z,78.20
2023-01-20T10:50:54.912Z,78.18
2023-01-20T10:52:02.342Z,77.94
2023-01-20T10:53:21.437Z,76.70
2023-01-20T10:54:34.897Z,77.47
2023-01-20T10:56:02.240Z,78.51
2023-01-20T10:57:06.129Z,77.86
2023-01-20T10:58:21.383Z,77.66
2023-01-20T10:59:45.179Z,78.36
2023-01-20T11:00:47.280Z,78.13
2023-01-20T11:02:02.504Z,78.34
2023-01-20T11:03:15.096Z,78.39
2023-01-20T11:04:21.461Z,78.32
2023-01-20T11:05:27.795Z,78.77
2023-01-20T11:06:29.672Z,79.29
2023-01-20T11:07:33.359Z,79.01
2023-01-20T11:08:35.659Z,79.39
2023-01-20T11:09:38.323Z,79.35
2023-01-20T11:10:40.172Z,79.03
2023-01-20T11:11:42.302Z,79.29
2023-01-20T11:12:47.583Z,79.13
2023-01-20T11:13:50.255Z,79.97
2023-01-20T11:14:53.951Z,80.99
2023-01-20T11:16:04.197Z,82.44
2023-01-20T11:17:13.064Z,83.12
2023-01-20T11:18:15.093Z,83.47
2023-01-20T11:19:17.417Z,80.01
2023-01-20T11:20:22.170Z,80.56
2023-01-20T11:21:26.372Z,81.64
2023-01-20T11:22:34.563Z,82.42
2023-01-20T11:23:49.778Z,82.04
2023-01-20T11:24:56.623Z,82.16
2023-01-20T11:26:02.289Z,82.53
2023-01-20T11:27:06.454Z,82.68
2023-01-20T11:28:18.387Z,83.04
2023-01-20T11:29:20.456Z,83.58
2023-01-20T11:30:34.562Z,84.31
2023-01-20T11:31:52.653Z,84.41
2023-01-20T11:33:30.099Z,85.08
2023-01-20T11:34:36.292Z,85.29
2023-01-20T11:35:38.458Z,85.73
2023-01-20T11:36:40.333Z,85.90
2023-01-20T11:37:42.279Z,86.07
2023-01-20T11:38:47.313Z,86.74
2023-01-20T11:40:02.608Z,87.22
2023-01-20T11:41:04.845Z,88.31
2023-01-20T11:42:18.839Z,86.53
2023-01-20T11:43:37.608Z,85.18
2023-01-20T11:44:43.732Z,85.10
2023-01-20T11:45:45.799Z,86.17
2023-01-20T11:46:47.791Z,86.63
2023-01-20T11:48:17.307Z,86.67
2023-01-20T11:49:21.753Z,86.74
2023-01-20T11:50:38.231Z,87.11
2023-01-20T11:51:55.420Z,87.18
2023-01-20T11:53:31.889Z,87.40
2023-01-20T11:54:35.857Z,87.64
2023-01-20T11:56:01.052Z,88.29
2023-01-20T11:57:06.301Z,88.64
2023-01-20T11:58:26.791Z,88.89
2023-01-20T11:59:31.181Z,88.12
2023-01-20T12:00:42.073Z,88.78
2023-01-20T12:02:00.762Z,88.66
2023-01-20T12:03:04.058Z,89.41
2023-01-20T12:04:51.597Z,89.38
2023-01-20T12:06:20.784Z,89.54
2023-01-20T12:07:41.844Z,89.68
2023-01-20T12:09:01.071Z,89.65
2023-01-20T12:10:21.561Z,89.14
2023-01-20T12:11:59.453Z,89.54
2023-01-20T12:13:19.625Z,89.64
2023-01-20T12:14:29.477Z,89.62
2023-01-20T12:15:37.976Z,89.76
2023-01-20T12:16:40.565Z,89.85
2023-01-20T12:18:04.109Z,90.05
2023-01-20T12:19:18.309Z,90.71
2023-01-20T12:20:53.644Z,90.87
2023-01-20T12:22:04.553Z,89.83
2023-01-20T12:23:25.756Z,86.90
2023-01-20T12:24:43.185Z,88.44
2023-01-20T12:25:58.460Z,89.05
2023-01-20T12:27:01.565Z,88.48
2023-01-20T12:28:48.616Z,88.67
2023-01-20T12:29:55.262Z,88.69
2023-01-20T12:31:11.689Z,87.70
2023-01-20T12:32:14.425Z,88.65
2023-01-20T12:33:22.468Z,89.08
2023-01-20T12:34:29.514Z,89.87
2023-01-20T12:35:38.384Z,90.27
2023-01-20T12:37:12.659Z,90.66
2023-01-20T12:38:19.710Z,90.08
2023-01-20T12:39:30.878Z,89.39
2023-01-20T12:40:55.623Z,89.50
2023-01-20T12:42:18.924Z,89.43
2023-01-20T12:43:29.625Z,89.15
2023-01-20T12:44:42.513Z,89.16
2023-01-20T12:45:56.974Z,89.30
2023-01-20T12:47:10.872Z,89.50
2023-01-20T12:48:31.324Z,89.56
2023-01-20T12:50:04.304Z,89.86
2023-01-20T12:51:15.080Z,90.16
2023-01-20T12:52:20.167Z,90.51
2023-01-20T12:53:43.716Z,90.61
2023-01-20T12:55:13.288Z,91.02
2023-01-20T12:56:39.364Z,91.13
2023-01-20T12:57:51.966Z,90.25
2023-01-20T12:58:53.679Z,90.36
2023-01-20T13:00:23.071Z,90.47
2023-01-20T13:01:43.733Z,90.27
2023-01-20T13:03:15.189Z,90.10
2023-01-20T13:04:22.845Z,90.35
2023-01-20T13:06:01.698Z,90.49
2023-01-20T13:07:34.089Z,90.78
2023-01-20T13:09:15.130Z,90.75
2023-01-20T13:10:25.896Z,91.16
2023-01-20T13:11:58.034Z,91.02
2023-01-20T13:13:24.272Z,90.95
2023-01-20T13:14:47.733Z,90.97
2023-01-20T13:16:28.325Z,90.81
2023-01-20T13:17:48.778Z,91.13
2023-01-20T13:18:53.859Z,91.38
2023-01-20T13:19:59.800Z,91.40
2023-01-20T13:21:01.871Z,90.76
2023-01-20T13:22:20.432Z,90.12
2023-01-20T13:23:32.759Z,90.46
2023-01-20T13:24:34.947Z,90.88
2023-01-20T13:25:39.371Z,91.22
2023-01-20T13:26:42.021Z,90.79
2023-01-20T13:27:45.802Z,90.48
2023-01-20T13:28:55.573Z,90.19
2023-01-20T13:29:59.700Z,89.56
2023-01-20T13:31:31.213Z,89.05
2023-01-20T13:32:47.043Z,88.88
2023-01-20T13:33:49.123Z,88.92
2023-01-20T13:34:50.941Z,88.55
2023-01-20T13:35:53.153Z,88.29
2023-01-20T13:37:04.816Z,88.04
2023-01-20T13:38:18.852Z,88.07
2023-01-20T13:39:29.958Z,88.15
2023-01-20T13:40:38.299Z,88.03
2023-01-20T13:41:53.071Z,87.80
2023-01-20T13:42:54.893Z,88.12
2023-01-20T13:43:56.870Z,88.01
2023-01-20T13:45:14.328Z,88.02
2023-01-20T13:46:36.396Z,88.02
2023-01-20T13:47:55.312Z,88.63
2023-01-20T13:49:14.119Z,88.54
2023-01-20T13:50:34.124Z,88.89
2023-01-20T13:51:39.891Z,88.99
2023-01-20T13:52:52.624Z,89.32
2023-01-20T13:53:54.846Z,89.22
2023-01-20T13:54:56.628Z,88.94
2023-01-20T13:56:01.404Z,88.83
2023-01-20T13:57:21.472Z,88.10
2023-01-20T13:58:34.883Z,87.87
2023-01-20T13:59:36.954Z,87.90
2023-01-20T14:00:39.169Z,88.25
2023-01-20T14:01:41.161Z,88.04
2023-01-20T14:02:43.117Z,88.46
2023-01-20T14:04:01.023Z,89.13
2023-01-20T14:05:02.867Z,89.28
2023-01-20T14:06:07.287Z,89.80
2023-01-20T14:07:22.684Z,89.75
2023-01-20T14:08:27.456Z,90.01
2023-01-20T14:09:30.718Z,90.10
2023-01-20T14:10:34.598Z,89.58
2023-01-20T14:11:50.140Z,89.57
2023-01-20T14:12:54.054Z,89.51
2023-01-20T14:14:02.241Z,88.57
2023-01-20T14:15:09.065Z,88.25
2023-01-20T14:16:25.296Z,88.28
2023-01-20T14:17:27.419Z,89.11
2023-01-20T14:18:30.858Z,89.23
2023-01-20T14:19:35.237Z,89.59
2023-01-20T14:20:37.366Z,89.03
2023-01-20T14:21:41.515Z,89.08
2023-01-20T14:22:45.940Z,89.33
2023-01-20T14:23:54.331Z,89.00
2023-01-20T14:24:58.758Z,88.39
2023-01-20T14:26:11.256Z,88.41
2023-01-20T14:27:24.378Z,88.54
2023-01-20T14:28:27.481Z,88.29
2023-01-20T14:29:29.809Z,87.77
2023-01-20T14:30:32.259Z,88.09
2023-01-20T14:31:37.782Z,88.13
2023-01-20T14:32:41.528Z,88.25
2023-01-20T14:33:48.673Z,88.05
2023-01-20T14:34:55.867Z,88.11
2023-01-20T14:35:58.183Z,88.39
2023-01-20T14:37:18.486Z,87.19
2023-01-20T14:38:22.025Z,87.22